Главная страница
METAR-TAF:

METAR-TAF

Аэропорты :

Хон, Германия

широта: 54-19N, долгота: 009-32E, высота над уровнем моря: 12 м

Текущие метеонаблюдения

Эта сводка был подготовлена 36 минут назад, в 02:20 UTC
Ветер 4 Узел от западный
Температура 2°C
Влажность 93%
Давление 1029 hPa
Видимость: 5000 м

METAR: ETNH 240220Z AUTO 28004KT 5000 // ////// 02/01 Q1029 ///

Время: 03:56 (02:56 UTC)

Прогноз

Эта сводка был подготовлена 3 часа и 46 минут назад, в 23:10 UTC
Прогноз действительный с 24-го 00 UTC до 24-го 12 UTC
Ветер 5 Узел от северно-северо-западный
Видимость: 6000 м
Рассеянная облачность на высоте 15000 фута
Вероятность 30%
С 24-го 00 UTC до 24-го 08 UTC
Ветер 3 Узел переменных направлений
Видимость: 3000 м
небольшая облачность на высоте 500 фута
дымка

TAF: ETNH 232310Z 2400/2412 34005KT 6000 NSW BKN150 PROB30 2400/2408 VRB03KT 3000 BR FEW005 CANCEL BY ETGL

Метеонаблюдения и прогнозы для более 4000 аэропортов (сводки METAR и TAF).

Имеющиеся станции представлены на карте желтыми и красными точками.

Чтобы увидеть название станции, наведите на нее мышь.

Затем щелкните, чтобы увидеть метеонаблюдения и метеопрогнозы.

Управление картой: чтобы увеличить масштаб, щелкните зеленые кнопки с черным крестиком; чтобы уменьшить масштаб, щелкните зеленую кнопку с тире; для просмотра соседних карт щелкайте зеленые стрелки.


METAR-TAF: